Time;durP1;ratioP1;P1;durP2;ratioP2;P2;SDS_P1;SDS_P2;PMS_P1;PMS_P2;Temp;Humidity;BMP_temperature;BMP_pressure;BME280_temperature;BME280_humidity;BME280_pressure;Samples;Min_cycle;Max_cycle;Signal;HPM_P1;HPM_P2
2021/11/23 00:00:44;;;;;;;;;;;;;;;21.46;46.93;103112.88;7286801;19;153383;-50
2021/11/23 00:03:12;;;;;;;;;;;;;;;21.44;46.95;103103.88;7284825;19;151766;-51
2021/11/23 00:05:39;;;;;;;;;;;;;;;21.43;47.26;103105.81;7285841;19;152120;-50
2021/11/23 00:08:06;;;;;;;;;;;;;;;21.40;47.35;103109.13;7285996;19;152233;-50
2021/11/23 00:10:32;;;;;;;;;;;;;;;21.39;47.38;103106.59;7287248;19;152012;-50
2021/11/23 00:12:59;;;;;;;;;;;;;;;21.36;47.45;103105.16;7287498;19;152182;-50
2021/11/23 00:15:33;;;;;;;;;;;;;;;21.34;47.59;103103.72;7294166;19;153307;-50
2021/11/23 00:18:01;;;;;;;;;;;;;;;21.33;48.17;103102.88;7287677;19;152773;-50
2021/11/23 00:20:28;;;;;;;;;;;;;;;21.30;47.66;103104.22;7285954;19;153436;-50
2021/11/23 00:22:55;;;;;;;;;;;;;;;21.28;48.05;103105.63;7287135;19;152211;-50
2021/11/23 00:25:21;;;;;;;;;;;;;;;21.24;48.15;103096.84;7286213;19;153028;-51
2021/11/23 00:27:48;;;;;;;;;;;;;;;21.22;48.05;103084.16;7286035;19;153333;-52
2021/11/23 00:30:15;;;;;;;;;;;;;;;21.20;48.15;103078.81;7286573;19;151824;-51
2021/11/23 00:32:42;;;;;;;;;;;;;;;21.19;48.09;103091.16;7285513;19;151696;-52
2021/11/23 00:35:08;;;;;;;;;;;;;;;21.16;48.20;103090.84;7286037;19;153998;-51
2021/11/23 00:37:35;;;;;;;;;;;;;;;21.13;48.03;103091.34;7292782;19;151998;-51
2021/11/23 00:40:02;;;;;;;;;;;;;;;21.12;48.11;103095.25;7283655;19;154563;-51
2021/11/23 00:42:30;;;;;;;;;;;;;;;21.08;48.40;103092.09;7285250;19;152099;-52
2021/11/23 00:44:57;;;;;;;;;;;;;;;21.05;48.16;103094.56;7285842;19;152502;-51
2021/11/23 00:47:23;;;;;;;;;;;;;;;21.03;48.35;103092.03;7285924;19;153165;-52
2021/11/23 00:49:51;;;;;;;;;;;;;;;21.01;48.53;103087.78;7286004;19;151596;-51
2021/11/23 00:52:21;;;;;;;;;;;;;;;20.97;48.30;103078.16;7286757;19;152064;-51
2021/11/23 00:54:48;;;;;;;;;;;;;;;20.95;48.51;103083.19;7285129;19;154020;-51
2021/11/23 00:57:15;;;;;;;;;;;;;;;20.91;48.18;103084.81;7286532;19;152426;-51
2021/11/23 00:59:42;;;;;;;;;;;;;;;20.89;48.55;103087.06;7291639;19;151536;-52
2021/11/23 01:02:11;;;;;;;;;;;;;;;20.85;48.37;103090.34;7284949;19;151726;-51
2021/11/23 01:04:38;;;;;;;;;;;;;;;20.83;48.39;103092.59;7283197;19;152926;-51
2021/11/23 01:07:05;;;;;;;;;;;;;;;20.80;48.54;103087.47;7282955;19;152935;-51
2021/11/23 01:09:32;;;;;;;;;;;;;;;20.77;48.74;103079.56;7285827;19;151986;-51
2021/11/23 01:11:59;;;;;;;;;;;;;;;20.76;48.34;103086.28;7286087;19;153505;-51
2021/11/23 01:14:26;;;;;;;;;;;;;;;20.75;48.70;103076.19;7281170;19;153895;-51
2021/11/23 01:16:53;;;;;;;;;;;;;;;20.73;49.18;103069.09;7286367;19;152207;-51
2021/11/23 01:19:20;;;;;;;;;;;;;;;20.71;49.34;103076.97;7285120;19;153298;-51
2021/11/23 01:21:47;;;;;;;;;;;;;;;20.69;49.15;103068.78;7290619;19;151766;-52
2021/11/23 01:24:14;;;;;;;;;;;;;;;20.66;49.17;103069.31;7285084;19;151858;-52
2021/11/23 01:26:41;;;;;;;;;;;;;;;20.66;49.41;103074.06;7281498;19;153344;-52
2021/11/23 01:29:09;;;;;;;;;;;;;;;20.64;49.17;103065.88;7285869;19;152443;-50
2021/11/23 01:31:36;;;;;;;;;;;;;;;20.60;49.17;103069.47;7285990;19;153444;-51
2021/11/23 01:34:04;;;;;;;;;;;;;;;20.59;49.35;103073.38;7284625;19;153398;-51
2021/11/23 01:36:31;;;;;;;;;;;;;;;20.58;49.15;103071.69;7286024;19;151655;-51
2021/11/23 01:38:57;;;;;;;;;;;;;;;20.57;49.10;103076.47;7284953;19;153481;-51
2021/11/23 01:41:24;;;;;;;;;;;;;;;20.55;49.35;103075.00;7289807;19;154119;-50
2021/11/23 01:43:51;;;;;;;;;;;;;;;20.54;49.47;103071.34;7285102;19;153110;-51
2021/11/23 01:46:18;;;;;;;;;;;;;;;20.53;49.01;103069.66;7281998;19;153925;-51
2021/11/23 01:48:44;;;;;;;;;;;;;;;20.50;49.16;103069.31;7284626;19;152345;-51
2021/11/23 01:51:11;;;;;;;;;;;;;;;20.49;49.45;103062.00;7285455;19;152695;-51
2021/11/23 01:53:38;;;;;;;;;;;;;;;20.48;49.50;103071.53;7281786;19;153281;-51
2021/11/23 01:56:05;;;;;;;;;;;;;;;20.45;49.70;103069.22;7283262;19;151786;-51
2021/11/23 01:58:32;;;;;;;;;;;;;;;20.40;49.26;103070.84;7283722;19;153403;-51
2021/11/23 02:00:59;;;;;;;;;;;;;;;20.40;49.47;103070.00;7282084;19;153471;-51
2021/11/23 02:03:26;;;;;;;;;;;;;;;20.37;49.78;103064.91;7286850;19;152278;-51
2021/11/23 02:05:53;;;;;;;;;;;;;;;20.37;49.62;103067.69;7278719;19;154533;-51
2021/11/23 02:08:19;;;;;;;;;;;;;;;20.33;49.24;103058.94;7284072;19;151899;-51
2021/11/23 02:10:46;;;;;;;;;;;;;;;20.29;49.67;103066.16;7283007;19;153782;-51
2021/11/23 02:13:13;;;;;;;;;;;;;;;20.28;49.31;103070.06;7282414;19;154138;-51
2021/11/23 02:15:40;;;;;;;;;;;;;;;20.25;49.45;103061.31;7284264;19;151732;-51
2021/11/23 02:18:13;;;;;;;;;;;;;;;20.24;49.43;103071.69;7283898;19;153726;-51
2021/11/23 02:20:41;;;;;;;;;;;;;;;20.19;49.54;103071.59;7282886;19;154131;-51
2021/11/23 02:23:08;;;;;;;;;;;;;;;20.19;49.69;103067.94;7283262;19;151863;-51
2021/11/23 02:25:35;;;;;;;;;;;;;;;20.18;49.78;103060.59;7289279;19;153343;-50
2021/11/23 02:28:06;;;;;;;;;;;;;;;20.14;50.18;103062.22;7284354;19;151729;-50
2021/11/23 02:30:41;;;;;;;;;;;;;;;20.13;50.01;103063.31;7284990;19;153120;-51
2021/11/23 02:33:07;;;;;;;;;;;;;;;20.11;50.17;103051.50;7282110;19;153909;-52
2021/11/23 02:35:34;;;;;;;;;;;;;;;20.07;49.79;103053.97;7284710;19;151920;-51
2021/11/23 02:38:01;;;;;;;;;;;;;;;20.04;49.87;103057.28;7283992;19;153126;-51
2021/11/23 02:40:28;;;;;;;;;;;;;;;20.02;49.81;103061.47;7280510;19;154147;-51
2021/11/23 02:42:55;;;;;;;;;;;;;;;19.99;50.10;103055.22;7283141;19;152241;-51
2021/11/23 02:45:23;;;;;;;;;;;;;;;19.97;50.05;103051.00;7282344;19;153277;-51
2021/11/23 02:47:51;;;;;;;;;;;;;;;19.92;49.93;103050.91;7288109;19;153274;-51
2021/11/23 02:50:18;;;;;;;;;;;;;;;19.91;50.12;103052.00;7283288;19;152759;-51
2021/11/23 02:52:47;;;;;;;;;;;;;;;19.88;50.05;103046.91;7281669;19;153747;-51
2021/11/23 02:55:15;;;;;;;;;;;;;;;19.88;50.41;103049.69;7282928;19;151897;-51
2021/11/23 02:57:45;;;;;;;;;;;;;;;19.86;50.40;103043.47;7281319;19;153705;-51
2021/11/23 03:00:23;;;;;;;;;;;;;;;19.83;50.30;103036.44;7281471;19;153240;-50
2021/11/23 03:02:51;;;;;;;;;;;;;;;19.82;50.11;103033.88;7280809;19;152121;-51
2021/11/23 03:05:19;;;;;;;;;;;;;;;19.80;50.19;103031.34;7282313;19;153332;-51
2021/11/23 03:07:46;;;;;;;;;;;;;;;19.78;50.33;103029.88;7281426;19;153266;-51
2021/11/23 03:10:13;;;;;;;;;;;;;;;19.75;50.08;103028.44;7290744;19;151946;-52
2021/11/23 03:12:40;;;;;;;;;;;;;;;19.73;50.00;103013.81;7283458;19;153911;-50
2021/11/23 03:15:08;;;;;;;;;;;;;;;19.72;50.00;103023.31;7288958;19;151899;-51
2021/11/23 03:17:35;;;;;;;;;;;;;;;19.69;50.21;103021.03;7288978;19;153005;-50
2021/11/23 03:20:03;;;;;;;;;;;;;;;19.65;50.45;103022.63;7288053;19;153296;-51
2021/11/23 03:22:30;;;;;;;;;;;;;;;19.64;50.34;103023.72;7289886;19;153083;-51
2021/11/23 03:24:57;;;;;;;;;;;;;;;19.64;50.71;103031.28;7288240;19;152623;-51
2021/11/23 03:27:24;;;;;;;;;;;;;;;19.62;50.31;103022.28;7285353;19;154985;-51
2021/11/23 03:29:51;;;;;;;;;;;;;;;19.60;50.65;103013.28;7296716;19;152056;-51
2021/11/23 03:32:17;;;;;;;;;;;;;;;19.57;50.33;103014.63;7286841;19;153169;-51
2021/11/23 03:34:46;;;;;;;;;;;;;;;19.55;50.76;103011.22;7289138;19;152180;-51
2021/11/23 03:37:15;;;;;;;;;;;;;;;19.55;50.87;103014.03;7288309;19;152113;-51
2021/11/23 03:39:43;;;;;;;;;;;;;;;19.52;50.62;103012.59;7287026;19;152385;-51
2021/11/23 03:42:10;;;;;;;;;;;;;;;19.51;50.94;103012.84;7288536;19;151661;-51
2021/11/23 03:44:36;;;;;;;;;;;;;;;19.50;50.86;103013.94;7288038;19;152831;-50
2021/11/23 03:47:04;;;;;;;;;;;;;;;19.47;51.05;103012.50;7284719;19;154135;-51
2021/11/23 03:49:31;;;;;;;;;;;;;;;19.46;51.05;103018.34;7287643;19;151694;-51
2021/11/23 03:51:58;;;;;;;;;;;;;;;19.44;51.30;103021.38;7294935;19;152823;-51
2021/11/23 03:54:25;;;;;;;;;;;;;;;19.42;51.35;103020.75;7285634;19;152162;-51
2021/11/23 03:56:52;;;;;;;;;;;;;;;19.40;51.10;103028.56;7288020;19;152155;-51
2021/11/23 03:59:19;;;;;;;;;;;;;;;19.40;51.49;103024.91;7286816;19;153919;-51
2021/11/23 04:01:46;;;;;;;;;;;;;;;19.37;51.71;103026.25;7286835;19;151757;-51
2021/11/23 04:04:12;;;;;;;;;;;;;;;19.36;51.51;103018.09;7288116;19;153441;-51
2021/11/23 04:06:39;;;;;;;;;;;;;;;19.36;51.51;103015.28;7285603;19;153783;-51
2021/11/23 04:09:06;;;;;;;;;;;;;;;19.35;51.78;103022.03;7287165;19;152480;-51
2021/11/23 04:11:33;;;;;;;;;;;;;;;19.33;51.45;103018.59;7287917;19;152211;-51
2021/11/23 04:14:00;;;;;;;;;;;;;;;19.30;51.80;103011.56;7292050;19;154142;-50
2021/11/23 04:16:27;;;;;;;;;;;;;;;19.29;51.42;103015.47;7288019;19;152624;-51
2021/11/23 04:18:53;;;;;;;;;;;;;;;19.27;51.52;103014.84;7285794;19;153270;-51
2021/11/23 04:21:21;;;;;;;;;;;;;;;19.27;51.48;103019.59;7288665;19;152305;-51
2021/11/23 04:23:52;;;;;;;;;;;;;;;19.26;51.78;103021.53;7286367;19;152974;-51
2021/11/23 04:26:19;;;;;;;;;;;;;;;19.25;51.96;103027.41;7285804;19;153119;-51
2021/11/23 04:28:46;;;;;;;;;;;;;;;19.24;51.50;103031.31;7286935;19;151978;-51
2021/11/23 04:31:12;;;;;;;;;;;;;;;19.23;51.86;103036.06;7287015;19;152022;-50
2021/11/23 04:33:39;;;;;;;;;;;;;;;19.21;51.63;103027.06;7285791;19;153168;-51
2021/11/23 04:36:06;;;;;;;;;;;;;;;19.23;51.93;103030.47;7293785;19;155156;-51
2021/11/23 04:38:33;;;;;;;;;;;;;;;19.22;52.04;103030.69;7285174;19;153934;-51
2021/11/23 04:41:00;;;;;;;;;;;;;;;19.18;52.20;103030.34;7288018;19;152275;-51
2021/11/23 04:43:27;;;;;;;;;;;;;;;19.17;52.13;103027.81;7285927;19;152843;-51
2021/11/23 04:45:54;;;;;;;;;;;;;;;19.15;51.77;103027.19;7285720;19;153128;-51
2021/11/23 04:48:20;;;;;;;;;;;;;;;19.13;52.27;103023.78;7286819;19;151690;-51
2021/11/23 04:50:47;;;;;;;;;;;;;;;19.17;52.34;103033.44;7287658;19;152503;-51
2021/11/23 04:53:14;;;;;;;;;;;;;;;19.22;52.00;103034.34;7285139;19;154084;-51
2021/11/23 04:55:40;;;;;;;;;;;;;;;19.28;52.08;103038.13;7285404;19;151815;-51
2021/11/23 04:58:07;;;;;;;;;;;;;;;19.33;52.56;103038.22;7290710;19;153359;-52
2021/11/23 05:00:34;;;;;;;;;;;;;;;19.39;52.51;103028.81;7287112;19;152397;-51
2021/11/23 05:03:01;;;;;;;;;;;;;;;19.42;52.47;103022.72;7283494;19;153895;-51
2021/11/23 05:05:28;;;;;;;;;;;;;;;19.49;52.36;103026.22;7284900;19;153189;-51
2021/11/23 05:07:54;;;;;;;;;;;;;;;19.54;52.27;103026.34;7282725;19;152331;-50
2021/11/23 05:10:21;;;;;;;;;;;;;;;19.59;52.52;103008.75;7286323;19;153368;-52
2021/11/23 05:12:48;;;;;;;;;;;;;;;19.67;51.89;103017.59;7285728;19;153273;-51
2021/11/23 05:15:15;;;;;;;;;;;;;;;19.74;52.25;103020.28;7286365;19;151743;-51
2021/11/23 05:17:42;;;;;;;;;;;;;;;19.80;52.40;103022.06;7285537;19;155122;-51
2021/11/23 05:20:09;;;;;;;;;;;;;;;19.86;52.40;103013.47;7292339;19;153947;-51
2021/11/23 05:22:36;;;;;;;;;;;;;;;19.92;52.03;103015.28;7285970;19;153409;-51
2021/11/23 05:25:03;;;;;;;;;;;;;;;20.00;52.33;103005.56;7284612;19;153829;-51
2021/11/23 05:27:30;;;;;;;;;;;;;;;20.07;52.06;103014.69;7283526;19;152130;-51
2021/11/23 05:29:57;;;;;;;;;;;;;;;20.16;52.25;103017.91;7286031;19;152640;-51
2021/11/23 05:32:24;;;;;;;;;;;;;;;20.22;51.93;103016.88;7284033;19;152178;-50
2021/11/23 05:34:50;;;;;;;;;;;;;;;20.29;51.87;103010.00;7283417;19;151918;-51
2021/11/23 05:37:17;;;;;;;;;;;;;;;20.35;51.68;103011.78;7284987;19;152264;-51
2021/11/23 05:39:44;;;;;;;;;;;;;;;20.42;51.52;103014.44;7291483;19;154174;-51
2021/11/23 05:42:11;;;;;;;;;;;;;;;20.49;51.44;103005.84;7285645;19;154576;-51
2021/11/23 05:44:37;;;;;;;;;;;;;;;20.54;51.26;103008.69;7284038;19;153558;-51
2021/11/23 05:47:04;;;;;;;;;;;;;;;20.59;51.12;103001.22;7283400;19;151577;-51
2021/11/23 05:49:31;;;;;;;;;;;;;;;20.66;50.91;103012.28;7284077;19;152038;-51
2021/11/23 05:51:59;;;;;;;;;;;;;;;20.72;50.20;103020.50;7284117;19;153260;-51
2021/11/23 05:54:26;;;;;;;;;;;;;;;20.78;50.28;103013.00;7284785;19;152459;-51
2021/11/23 05:56:52;;;;;;;;;;;;;;;20.83;50.23;103015.88;7284237;19;154139;-51
2021/11/23 05:59:21;;;;;;;;;;;;;;;20.89;50.30;103016.81;7282990;19;154128;-51
2021/11/23 06:01:48;;;;;;;;;;;;;;;20.94;49.58;103017.69;7291380;19;152731;-51
2021/11/23 06:04:15;;;;;;;;;;;;;;;20.99;49.68;103009.34;7282097;19;152400;-50
2021/11/23 06:06:41;;;;;;;;;;;;;;;21.04;49.60;103009.41;7284444;19;151940;-51
2021/11/23 06:09:08;;;;;;;;;;;;;;;21.09;49.08;102994.56;7283484;19;153266;-51
2021/11/23 06:11:35;;;;;;;;;;;;;;;21.13;49.15;103002.25;7281689;19;153480;-51
2021/11/23 06:14:02;;;;;;;;;;;;;;;21.17;49.20;103006.22;7282026;19;151810;-51
2021/11/23 06:16:31;;;;;;;;;;;;;;;21.22;48.74;103002.63;7282076;19;152034;-51
2021/11/23 06:18:58;;;;;;;;;;;;;;;21.27;48.38;103011.13;7282809;19;153237;-51
2021/11/23 06:21:25;;;;;;;;;;;;;;;21.32;48.41;103018.75;7285025;19;152116;-51
2021/11/23 06:23:53;;;;;;;;;;;;;;;21.37;48.27;103018.84;7291154;19;153263;-51
2021/11/23 06:29:31;;;;;;;;;;;;;;;21.45;48.22;103021.16;7283981;19;152516;-51
2021/11/23 06:31:58;;;;;;;;;;;;;;;21.49;48.35;103026.00;7282748;19;153762;-51
2021/11/23 06:34:25;;;;;;;;;;;;;;;21.52;47.91;103031.13;7284310;19;151903;-51
2021/11/23 06:36:51;;;;;;;;;;;;;;;21.56;48.00;103023.84;7283507;19;151820;-51
2021/11/23 06:39:19;;;;;;;;;;;;;;;21.61;48.10;103029.53;7282485;19;153812;-51
2021/11/23 06:41:46;;;;;;;;;;;;;;;21.64;48.41;103033.75;7284137;19;152034;-51
2021/11/23 06:44:13;;;;;;;;;;;;;;;21.67;48.27;103031.25;7282924;19;152582;-51
2021/11/23 06:46:39;;;;;;;;;;;;;;;21.70;48.30;103033.56;7291686;19;156116;-51
2021/11/23 06:49:06;;;;;;;;;;;;;;;21.75;47.94;103027.13;7289135;19;153439;-51
2021/11/23 06:51:34;;;;;;;;;;;;;;;21.79;47.93;103021.81;7289539;19;153277;-51
2021/11/23 06:54:00;;;;;;;;;;;;;;;21.81;47.96;103025.19;7289363;19;151978;-51
2021/11/23 06:56:28;;;;;;;;;;;;;;;21.84;47.94;103030.31;7290715;19;152604;-51
2021/11/23 06:59:01;;;;;;;;;;;;;;;21.88;47.81;103025.84;7285691;19;153029;-50
2021/11/23 07:01:28;;;;;;;;;;;;;;;21.91;47.68;103034.59;7287159;19;152164;-51
2021/11/23 07:03:55;;;;;;;;;;;;;;;21.95;47.79;103038.59;7285346;19;152994;-51
2021/11/23 07:06:21;;;;;;;;;;;;;;;21.98;47.82;103031.59;7288688;19;154493;-51
2021/11/23 07:08:48;;;;;;;;;;;;;;;22.00;47.72;103035.84;7294366;19;152072;-51
2021/11/23 07:11:15;;;;;;;;;;;;;;;22.03;47.58;103035.28;7287779;19;154827;-51
2021/11/23 07:13:42;;;;;;;;;;;;;;;22.06;47.54;103028.28;7287096;19;152107;-51
2021/11/23 07:16:09;;;;;;;;;;;;;;;22.09;47.56;103031.41;7289424;19;152516;-51
2021/11/23 07:18:39;;;;;;;;;;;;;;;22.12;48.35;103039.31;7286551;19;154942;-51
2021/11/23 07:21:05;;;;;;;;;;;;;;;22.04;47.02;103051.06;7289280;19;152530;-51
2021/11/23 07:23:52;;;;;;;;;;;;;;;21.97;45.11;103064.53;7289729;19;154888;-51
2021/11/23 07:26:19;;;;;;;;;;;;;;;21.92;43.99;103047.56;7286558;19;153258;-51
2021/11/23 07:28:46;;;;;;;;;;;;;;;21.89;43.29;103050.06;7287399;19;152052;-51
2021/11/23 07:31:13;;;;;;;;;;;;;;;21.95;44.06;103052.69;7295999;19;152701;-51
2021/11/23 07:33:40;;;;;;;;;;;;;;;22.01;43.13;103060.06;7288733;19;151798;-51
2021/11/23 07:36:06;;;;;;;;;;;;;;;21.99;43.07;103067.06;7286782;19;153478;-51
2021/11/23 07:38:33;;;;;;;;;;;;;;;21.99;42.86;103072.69;7287867;19;153805;-51
2021/11/23 07:41:00;;;;;;;;;;;;;;;22.00;42.91;103069.63;7289384;19;152276;-51
2021/11/23 07:43:26;;;;;;;;;;;;;;;21.99;43.18;103073.53;7288693;19;153156;-51
2021/11/23 07:45:53;;;;;;;;;;;;;;;22.05;42.88;103072.47;7287228;19;153945;-51
2021/11/23 07:48:20;;;;;;;;;;;;;;;22.03;43.35;103073.88;7287194;19;151504;-51
2021/11/23 07:50:46;;;;;;;;;;;;;;;22.02;43.02;103069.34;7294451;19;154300;-51
2021/11/23 07:53:13;;;;;;;;;;;;;;;22.03;42.97;103071.88;7288184;19;151786;-52
2021/11/23 07:55:41;;;;;;;;;;;;;;;22.05;42.93;103074.44;7288794;19;152580;-52
2021/11/23 07:58:07;;;;;;;;;;;;;;;22.04;42.86;103078.38;7284370;19;153271;-52
2021/11/23 08:00:34;;;;;;;;;;;;;;;22.04;42.89;103079.22;7288165;19;152191;-50
2021/11/23 08:03:01;;;;;;;;;;;;;;;22.04;42.49;103076.41;7285069;19;154236;-50
2021/11/23 08:05:28;;;;;;;;;;;;;;;22.06;42.43;103068.56;7286907;19;152692;-50
2021/11/23 08:07:55;;;;;;;;;;;;;;;22.06;42.67;103078.97;7286128;19;151839;-49
2021/11/23 08:10:22;;;;;;;;;;;;;;;22.03;42.38;103083.16;7287741;19;153496;-49
2021/11/23 08:12:49;;;;;;;;;;;;;;;22.03;42.37;103079.50;7293324;19;153357;-50
2021/11/23 08:15:15;;;;;;;;;;;;;;;22.01;42.88;103084.53;7288311;19;152735;-50
2021/11/23 08:17:42;;;;;;;;;;;;;;;21.99;42.72;103087.63;7286390;19;153030;-49
2021/11/23 08:20:11;;;;;;;;;;;;;;;21.98;42.50;103077.50;7287604;19;151781;-50
2021/11/23 08:22:39;;;;;;;;;;;;;;;21.98;42.54;103083.13;7287156;19;153590;-50
2021/11/23 08:25:09;;;;;;;;;;;;;;;21.93;42.02;103082.22;7286398;19;153286;-50
2021/11/23 08:27:36;;;;;;;;;;;;;;;21.86;41.06;103078.72;7287192;19;151526;-50
2021/11/23 08:30:04;;;;;;;;;;;;;;;21.95;41.02;103078.00;7288198;19;152758;-51
2021/11/23 08:32:30;;;;;;;;;;;;;;;21.93;41.49;103087.84;7285824;19;154296;-50
2021/11/23 08:34:57;;;;;;;;;;;;;;;21.92;41.28;103078.53;7294431;19;151990;-49
2021/11/23 08:37:26;;;;;;;;;;;;;;;21.86;41.39;103087.16;7285144;19;153826;-50
2021/11/23 08:39:54;;;;;;;;;;;;;;;21.83;41.26;103085.75;7287110;19;151751;-50
2021/11/23 08:42:21;;;;;;;;;;;;;;;21.79;41.12;103101.47;7287637;19;152579;-50
2021/11/23 08:44:48;;;;;;;;;;;;;;;21.75;41.42;103094.66;7285977;19;152671;-51
2021/11/23 08:47:15;;;;;;;;;;;;;;;21.71;41.42;103091.50;7285881;19;151747;-51
2021/11/23 08:49:43;;;;;;;;;;;;;;;21.71;41.18;103088.69;7286665;19;151969;-52
2021/11/23 08:52:10;;;;;;;;;;;;;;;21.66;41.29;103077.41;7285378;19;152457;-52
2021/11/23 08:54:37;;;;;;;;;;;;;;;21.64;41.58;103088.06;7287352;19;151545;-52
2021/11/23 08:57:07;;;;;;;;;;;;;;;21.63;41.26;103088.31;7293579;19;152598;-52
2021/11/23 08:59:41;;;;;;;;;;;;;;;21.61;41.15;103085.78;7286358;19;152665;-52
2021/11/23 09:02:10;;;;;;;;;;;;;;;21.61;41.47;103082.97;7283897;19;154328;-52
2021/11/23 09:04:37;;;;;;;;;;;;;;;21.62;41.14;103084.66;7285445;19;154349;-52
2021/11/23 09:07:07;;;;;;;;;;;;;;;21.62;41.71;103084.66;7286462;19;151589;-52
2021/11/23 09:09:36;;;;;;;;;;;;;;;21.62;41.45;103090.28;7281280;19;152793;-52
2021/11/23 09:12:03;;;;;;;;;;;;;;;21.62;41.20;103083.81;7285242;19;152850;-52
2021/11/23 09:14:31;;;;;;;;;;;;;;;21.61;41.65;103094.22;7286710;19;152317;-52
2021/11/23 09:16:59;;;;;;;;;;;;;;;21.61;41.59;103094.22;7286303;19;153905;-52
2021/11/23 09:19:26;;;;;;;;;;;;;;;21.61;41.12;103096.19;7292116;19;154416;-52
2021/11/23 09:21:54;;;;;;;;;;;;;;;21.61;41.06;103099.84;7286620;19;151839;-50
2021/11/23 09:24:22;;;;;;;;;;;;;;;21.59;41.07;103096.44;7284603;19;152905;-50
2021/11/23 09:26:51;;;;;;;;;;;;;;;21.58;41.07;103105.13;7286018;19;151849;-50
2021/11/23 09:29:18;;;;;;;;;;;;;;;21.56;40.96;103101.75;7283708;19;152646;-50
2021/11/23 09:31:45;;;;;;;;;;;;;;;21.55;40.75;103105.66;7284976;19;154192;-51
2021/11/23 09:34:14;;;;;;;;;;;;;;;21.54;40.96;103104.81;7285031;19;151751;-51
2021/11/23 09:36:41;;;;;;;;;;;;;;;21.54;40.91;103106.78;7286771;19;153685;-50
2021/11/23 09:39:09;;;;;;;;;;;;;;;21.51;40.74;103094.09;7283634;19;152295;-50
2021/11/23 09:41:36;;;;;;;;;;;;;;;21.50;41.01;103100.84;7293238;19;152190;-50
2021/11/23 09:44:05;;;;;;;;;;;;;;;21.48;41.01;103100.25;7283841;19;153541;-50
2021/11/23 09:46:33;;;;;;;;;;;;;;;21.45;41.16;103100.78;7283675;19;151960;-50
2021/11/23 09:49:00;;;;;;;;;;;;;;;21.44;40.75;103090.63;7283369;19;152747;-50
2021/11/23 09:51:33;;;;;;;;;;;;;;;21.44;41.02;103098.25;7284347;19;154229;-50
2021/11/23 09:54:01;;;;;;;;;;;;;;;21.41;40.71;103099.59;7285012;19;152027;-50
2021/11/23 09:56:28;;;;;;;;;;;;;;;21.40;40.88;103109.13;7285833;19;152840;-50
2021/11/23 09:58:55;;;;;;;;;;;;;;;21.36;40.72;103093.91;7283770;19;154929;-50
2021/11/23 10:01:24;;;;;;;;;;;;;;;21.34;40.72;103103.72;7292843;19;151598;-50
2021/11/23 10:03:52;;;;;;;;;;;;;;;21.30;40.99;103109.03;7280647;19;153961;-50
2021/11/23 10:06:22;;;;;;;;;;;;;;;21.28;41.08;103108.44;7285071;19;152220;-50
2021/11/23 10:08:51;;;;;;;;;;;;;;;21.26;41.04;103107.81;7283480;19;152599;-50
2021/11/23 10:11:29;;;;;;;;;;;;;;;21.23;41.15;103103.59;7283525;19;152253;-50
2021/11/23 10:13:58;;;;;;;;;;;;;;;21.22;40.95;103107.50;7285058;19;151911;-51
2021/11/23 10:16:36;;;;;;;;;;;;;;;21.17;40.86;103096.19;7284328;19;152174;-50
2021/11/23 10:19:05;;;;;;;;;;;;;;;21.16;40.86;103102.09;7283187;19;154024;-50
2021/11/23 10:21:32;;;;;;;;;;;;;;;21.12;40.87;103107.31;7283290;19;152095;-50
2021/11/23 10:23:59;;;;;;;;;;;;;;;21.09;40.81;103105.03;7289066;19;152902;-50
2021/11/23 10:26:27;;;;;;;;;;;;;;;21.06;41.15;103099.94;7284368;19;152099;-50
2021/11/23 10:28:56;;;;;;;;;;;;;;;21.03;41.14;103097.63;7281867;19;154122;-50
2021/11/23 10:31:27;;;;;;;;;;;;;;;21.00;41.22;103094.50;7283506;19;154069;-50
2021/11/23 10:33:56;;;;;;;;;;;;;;;20.97;41.11;103103.47;7283971;19;151631;-50
2021/11/23 10:36:27;;;;;;;;;;;;;;;20.92;40.99;103092.16;7283851;19;153890;-50
2021/11/23 10:39:01;;;;;;;;;;;;;;;20.90;41.07;103098.00;7282189;19;152774;-50
2021/11/23 10:41:28;;;;;;;;;;;;;;;20.88;41.45;103088.16;7284761;19;152177;-50
2021/11/23 10:43:56;;;;;;;;;;;;;;;20.83;41.53;103086.97;7283125;19;152246;-51
2021/11/23 10:46:23;;;;;;;;;;;;;;;20.80;41.42;103079.03;7290282;19;153487;-51
2021/11/23 10:48:52;;;;;;;;;;;;;;;20.78;41.57;103075.66;7282410;19;152964;-51
2021/11/23 10:51:21;;;;;;;;;;;;;;;20.76;41.31;103086.28;7282322;19;153309;-50
2021/11/23 10:53:49;;;;;;;;;;;;;;;20.76;41.91;103074.19;7283065;19;151930;-51
2021/11/23 10:56:17;;;;;;;;;;;;;;;20.72;41.90;103073.88;7283623;19;153346;-50
2021/11/23 10:58:46;;;;;;;;;;;;;;;20.70;41.93;103069.63;7281697;19;154049;-50
2021/11/23 11:01:13;;;;;;;;;;;;;;;20.69;41.54;103063.16;7283615;19;152406;-50
2021/11/23 11:03:42;;;;;;;;;;;;;;;20.68;41.69;103055.84;7279832;19;153677;-51
2021/11/23 11:06:09;;;;;;;;;;;;;;;20.66;42.02;103055.25;7282157;19;153805;-50
2021/11/23 11:08:38;;;;;;;;;;;;;;;20.64;41.52;103065.03;7289501;19;151448;-50
2021/11/23 11:11:05;;;;;;;;;;;;;;;20.61;41.62;103060.78;7282655;19;153259;-50
2021/11/23 11:13:33;;;;;;;;;;;;;;;20.60;41.61;103050.66;7283122;19;151918;-51
2021/11/23 11:16:00;;;;;;;;;;;;;;;20.59;41.89;103054.56;7282869;19;153411;-50
2021/11/23 11:18:28;;;;;;;;;;;;;;;20.57;41.82;103050.34;7279813;19;153997;-51
2021/11/23 11:21:03;;;;;;;;;;;;;;;20.53;41.82;103044.38;7282622;19;152177;-50
2021/11/23 11:23:31;;;;;;;;;;;;;;;20.52;41.48;103039.03;7282870;19;153088;-50
2021/11/23 11:26:04;;;;;;;;;;;;;;;20.50;41.80;103036.47;7281985;19;153709;-51
2021/11/23 11:28:44;;;;;;;;;;;;;;;20.48;41.62;103035.88;7281427;19;152395;-51
2021/11/23 11:31:30;;;;;;;;;;;;;;;20.47;42.01;103036.13;7288710;19;152392;-50
2021/11/23 11:34:16;;;;;;;;;;;;;;;20.43;42.30;103027.38;7285782;19;151917;-50
2021/11/23 11:36:45;;;;;;;;;;;;;;;20.43;42.01;103021.75;7289242;19;152454;-50
2021/11/23 11:39:38;;;;;;;;;;;;;;;20.39;42.10;103021.44;7287681;19;153314;-50
2021/11/23 11:42:20;;;;;;;;;;;;;;;20.37;41.82;103019.97;7286582;19;152812;-50
2021/11/23 11:44:54;;;;;;;;;;;;;;;20.35;42.06;103017.41;7288728;19;154662;-51
2021/11/23 11:47:32;;;;;;;;;;;;;;;20.35;41.89;103011.78;7287276;19;152307;-51
2021/11/23 11:50:07;;;;;;;;;;;;;;;20.32;41.75;103012.31;7286165;19;151724;-51
2021/11/23 11:52:54;;;;;;;;;;;;;;;20.32;42.38;103011.47;7288458;19;152681;-50
2021/11/23 11:55:25;;;;;;;;;;;;;;;20.29;41.97;103015.63;7293863;19;152542;-51
2021/11/23 11:58:00;;;;;;;;;;;;;;;20.28;42.09;103013.91;7288676;19;152687;-51
2021/11/23 12:00:31;;;;;;;;;;;;;;;20.25;42.20;103016.38;7287289;19;153047;-50
2021/11/23 12:03:08;;;;;;;;;;;;;;;20.23;42.06;103015.78;7287565;19;151956;-51
2021/11/23 12:05:57;;;;;;;;;;;;;;;20.21;42.32;103010.44;7288946;19;153421;-52
2021/11/23 12:08:31;;;;;;;;;;;;;;;20.21;42.58;103006.78;7285732;19;154167;-51
2021/11/23 12:10:59;;;;;;;;;;;;;;;20.18;42.48;103005.31;7288329;19;152442;-52
2021/11/23 12:13:35;;;;;;;;;;;;;;;20.18;42.40;103001.66;7285569;19;151782;-51
2021/11/23 12:16:05;;;;;;;;;;;;;;;20.16;41.96;102996.31;7294245;19;152332;-51
2021/11/23 12:18:45;;;;;;;;;;;;;;;20.14;42.17;102992.91;7288111;19;152548;-51
2021/11/23 12:21:16;;;;;;;;;;;;;;;20.13;42.37;102993.16;7287166;19;153376;-51
2021/11/23 12:23:57;;;;;;;;;;;;;;;20.11;42.29;102985.00;7287283;19;151982;-52
2021/11/23 12:26:35;;;;;;;;;;;;;;;20.09;42.12;102986.34;7285986;19;152517;-51
2021/11/23 12:29:06;;;;;;;;;;;;;;;20.06;42.18;102990.53;7285835;19;153139;-52
2021/11/23 12:31:35;;;;;;;;;;;;;;;20.05;42.10;102983.22;7285921;19;152847;-52
2021/11/23 12:34:04;;;;;;;;;;;;;;;20.05;42.65;102982.38;7287291;19;152997;-51
2021/11/23 12:36:36;;;;;;;;;;;;;;;20.02;42.32;102980.94;7286793;19;154307;-51